sensor_id;sensor_type;location;lat;lon;timestamp;temperature;humidity
26254;DHT22;53339;51.378;0.094;2023-11-19T00:00:22;12.50;85.70
26254;DHT22;53339;51.378;0.094;2023-11-19T00:02:51;12.40;85.50
26254;DHT22;53339;51.378;0.094;2023-11-19T00:05:19;12.40;85.60
26254;DHT22;53339;51.378;0.094;2023-11-19T00:07:47;12.40;85.60
26254;DHT22;53339;51.378;0.094;2023-11-19T00:10:16;12.40;85.30
26254;DHT22;53339;51.378;0.094;2023-11-19T00:12:47;12.40;85.30
26254;DHT22;53339;51.378;0.094;2023-11-19T00:15:16;12.40;85.20
26254;DHT22;53339;51.378;0.094;2023-11-19T00:17:47;12.40;85.40
26254;DHT22;53339;51.378;0.094;2023-11-19T00:20:17;12.30;85.30
26254;DHT22;53339;51.378;0.094;2023-11-19T00:22:46;12.30;85.50
26254;DHT22;53339;51.378;0.094;2023-11-19T00:25:17;12.30;85.10
26254;DHT22;53339;51.378;0.094;2023-11-19T00:27:44;12.30;85.30
26254;DHT22;53339;51.378;0.094;2023-11-19T00:30:13;12.30;85.20
26254;DHT22;53339;51.378;0.094;2023-11-19T00:32:42;12.20;85.10
26254;DHT22;53339;51.378;0.094;2023-11-19T00:35:10;12.20;85.20
26254;DHT22;53339;51.378;0.094;2023-11-19T00:37:38;12.20;85.20
26254;DHT22;53339;51.378;0.094;2023-11-19T00:40:06;12.20;85.20
26254;DHT22;53339;51.378;0.094;2023-11-19T00:42:34;12.20;85.50
26254;DHT22;53339;51.378;0.094;2023-11-19T00:45:02;12.20;85.60
26254;DHT22;53339;51.378;0.094;2023-11-19T00:47:30;12.20;85.60
26254;DHT22;53339;51.378;0.094;2023-11-19T00:49:58;12.10;85.70
26254;DHT22;53339;51.378;0.094;2023-11-19T00:52:26;12.10;85.90
26254;DHT22;53339;51.378;0.094;2023-11-19T00:54:54;12.10;86.20
26254;DHT22;53339;51.378;0.094;2023-11-19T00:57:22;12.00;86.40
26254;DHT22;53339;51.378;0.094;2023-11-19T00:59:52;12.00;86.50
26254;DHT22;53339;51.378;0.094;2023-11-19T01:02:20;11.90;86.60
26254;DHT22;53339;51.378;0.094;2023-11-19T01:04:48;11.90;86.80
26254;DHT22;53339;51.378;0.094;2023-11-19T01:07:16;11.90;87.00
26254;DHT22;53339;51.378;0.094;2023-11-19T01:09:44;11.80;87.20
26254;DHT22;53339;51.378;0.094;2023-11-19T01:12:12;11.80;87.20
26254;DHT22;53339;51.378;0.094;2023-11-19T01:14:40;11.70;87.20
26254;DHT22;53339;51.378;0.094;2023-11-19T01:17:08;11.80;87.30
26254;DHT22;53339;51.378;0.094;2023-11-19T01:19:36;11.80;87.10
26254;DHT22;53339;51.378;0.094;2023-11-19T01:22:04;11.80;87.00
26254;DHT22;53339;51.378;0.094;2023-11-19T01:24:33;11.80;87.00
26254;DHT22;53339;51.378;0.094;2023-11-19T01:27:01;11.80;86.90
26254;DHT22;53339;51.378;0.094;2023-11-19T01:29:29;11.70;86.90
26254;DHT22;53339;51.378;0.094;2023-11-19T01:31:57;11.70;87.00
26254;DHT22;53339;51.378;0.094;2023-11-19T01:34:25;11.70;87.00
26254;DHT22;53339;51.378;0.094;2023-11-19T01:36:53;11.70;87.00
26254;DHT22;53339;51.378;0.094;2023-11-19T01:39:20;11.70;86.90
26254;DHT22;53339;51.378;0.094;2023-11-19T01:41:48;11.70;86.80
26254;DHT22;53339;51.378;0.094;2023-11-19T01:44:16;11.70;86.70
26254;DHT22;53339;51.378;0.094;2023-11-19T01:46:48;11.70;86.50
26254;DHT22;53339;51.378;0.094;2023-11-19T01:49:18;11.80;86.40
26254;DHT22;53339;51.378;0.094;2023-11-19T01:51:47;11.80;86.20
26254;DHT22;53339;51.378;0.094;2023-11-19T01:54:16;11.80;86.00
26254;DHT22;53339;51.378;0.094;2023-11-19T01:56:44;11.80;86.00
26254;DHT22;53339;51.378;0.094;2023-11-19T01:59:13;11.80;85.80
26254;DHT22;53339;51.378;0.094;2023-11-19T02:01:42;11.80;85.90
26254;DHT22;53339;51.378;0.094;2023-11-19T02:04:13;11.90;85.70
26254;DHT22;53339;51.378;0.094;2023-11-19T02:06:42;11.90;85.60
26254;DHT22;53339;51.378;0.094;2023-11-19T02:09:10;11.90;85.60
26254;DHT22;53339;51.378;0.094;2023-11-19T02:11:40;11.90;85.60
26254;DHT22;53339;51.378;0.094;2023-11-19T02:14:08;11.90;85.60
26254;DHT22;53339;51.378;0.094;2023-11-19T02:16:36;11.90;85.10
26254;DHT22;53339;51.378;0.094;2023-11-19T02:19:03;11.90;84.80
26254;DHT22;53339;51.378;0.094;2023-11-19T02:21:33;11.90;85.10
26254;DHT22;53339;51.378;0.094;2023-11-19T02:24:07;11.90;85.00
26254;DHT22;53339;51.378;0.094;2023-11-19T02:26:57;11.90;85.30
26254;DHT22;53339;51.378;0.094;2023-11-19T02:29:29;11.90;85.40
26254;DHT22;53339;51.378;0.094;2023-11-19T02:31:57;11.80;85.60
26254;DHT22;53339;51.378;0.094;2023-11-19T02:34:25;11.80;85.60
26254;DHT22;53339;51.378;0.094;2023-11-19T02:36:53;11.80;85.70
26254;DHT22;53339;51.378;0.094;2023-11-19T02:39:21;11.70;85.80
26254;DHT22;53339;51.378;0.094;2023-11-19T02:41:49;11.70;85.70
26254;DHT22;53339;51.378;0.094;2023-11-19T02:44:20;11.70;85.70
26254;DHT22;53339;51.378;0.094;2023-11-19T02:46:48;11.80;85.60
26254;DHT22;53339;51.378;0.094;2023-11-19T02:49:16;11.80;85.60
26254;DHT22;53339;51.378;0.094;2023-11-19T02:51:47;11.70;85.40
26254;DHT22;53339;51.378;0.094;2023-11-19T02:54:15;11.70;85.40
26254;DHT22;53339;51.378;0.094;2023-11-19T02:56:43;11.70;85.20
26254;DHT22;53339;51.378;0.094;2023-11-19T02:59:11;11.80;85.50
26254;DHT22;53339;51.378;0.094;2023-11-19T03:01:54;11.70;85.20
26254;DHT22;53339;51.378;0.094;2023-11-19T03:04:22;11.70;85.10
26254;DHT22;53339;51.378;0.094;2023-11-19T03:06:50;11.70;84.80
26254;DHT22;53339;51.378;0.094;2023-11-19T03:09:18;11.70;84.50
26254;DHT22;53339;51.378;0.094;2023-11-19T03:11:46;11.80;84.30
26254;DHT22;53339;51.378;0.094;2023-11-19T03:14:14;11.80;84.10
26254;DHT22;53339;51.378;0.094;2023-11-19T03:16:45;11.80;84.10
26254;DHT22;53339;51.378;0.094;2023-11-19T03:19:14;11.80;83.90
26254;DHT22;53339;51.378;0.094;2023-11-19T03:21:52;11.80;84.00
26254;DHT22;53339;51.378;0.094;2023-11-19T03:24:24;11.70;84.20
26254;DHT22;53339;51.378;0.094;2023-11-19T03:26:52;11.70;84.30
26254;DHT22;53339;51.378;0.094;2023-11-19T03:29:19;11.70;84.50
26254;DHT22;53339;51.378;0.094;2023-11-19T03:31:47;11.70;84.60
26254;DHT22;53339;51.378;0.094;2023-11-19T03:34:15;11.70;84.70
26254;DHT22;53339;51.378;0.094;2023-11-19T03:36:44;11.70;84.90
26254;DHT22;53339;51.378;0.094;2023-11-19T03:39:11;11.60;85.00
26254;DHT22;53339;51.378;0.094;2023-11-19T03:41:39;11.70;85.20
26254;DHT22;53339;51.378;0.094;2023-11-19T03:44:08;11.60;85.00
26254;DHT22;53339;51.378;0.094;2023-11-19T03:46:36;11.70;84.80
26254;DHT22;53339;51.378;0.094;2023-11-19T03:49:04;11.70;84.70
26254;DHT22;53339;51.378;0.094;2023-11-19T03:51:34;11.80;84.70
26254;DHT22;53339;51.378;0.094;2023-11-19T03:54:02;11.70;84.60
26254;DHT22;53339;51.378;0.094;2023-11-19T03:56:30;11.80;84.60
26254;DHT22;53339;51.378;0.094;2023-11-19T03:58:58;11.80;84.80
26254;DHT22;53339;51.378;0.094;2023-11-19T04:01:29;11.80;84.60
26254;DHT22;53339;51.378;0.094;2023-11-19T04:03:57;11.70;84.60
26254;DHT22;53339;51.378;0.094;2023-11-19T04:06:26;11.70;84.80
26254;DHT22;53339;51.378;0.094;2023-11-19T04:08:54;11.70;84.80
26254;DHT22;53339;51.378;0.094;2023-11-19T04:11:23;11.70;84.90
26254;DHT22;53339;51.378;0.094;2023-11-19T04:13:57;11.70;84.80
26254;DHT22;53339;51.378;0.094;2023-11-19T04:16:28;11.70;84.80
26254;DHT22;53339;51.378;0.094;2023-11-19T04:18:59;11.80;84.60
26254;DHT22;53339;51.378;0.094;2023-11-19T04:21:30;11.70;84.60
26254;DHT22;53339;51.378;0.094;2023-11-19T04:23:58;11.80;84.60
26254;DHT22;53339;51.378;0.094;2023-11-19T04:26:26;11.80;84.50
26254;DHT22;53339;51.378;0.094;2023-11-19T04:28:57;11.70;84.40
26254;DHT22;53339;51.378;0.094;2023-11-19T04:31:29;11.80;84.40
26254;DHT22;53339;51.378;0.094;2023-11-19T04:34:00;11.90;84.20
26254;DHT22;53339;51.378;0.094;2023-11-19T04:36:31;11.90;84.00
26254;DHT22;53339;51.378;0.094;2023-11-19T04:39:05;11.80;83.90
26254;DHT22;53339;51.378;0.094;2023-11-19T04:41:50;11.90;83.90
26254;DHT22;53339;51.378;0.094;2023-11-19T04:44:20;11.90;83.80
26254;DHT22;53339;51.378;0.094;2023-11-19T04:46:48;11.90;83.60
26254;DHT22;53339;51.378;0.094;2023-11-19T04:49:15;11.90;83.70
26254;DHT22;53339;51.378;0.094;2023-11-19T04:51:45;11.80;83.50
26254;DHT22;53339;51.378;0.094;2023-11-19T04:54:15;11.90;83.40
26254;DHT22;53339;51.378;0.094;2023-11-19T04:56:45;11.90;83.40
26254;DHT22;53339;51.378;0.094;2023-11-19T04:59:14;11.90;83.20
26254;DHT22;53339;51.378;0.094;2023-11-19T05:01:47;11.90;83.30
26254;DHT22;53339;51.378;0.094;2023-11-19T05:04:15;11.90;83.10
26254;DHT22;53339;51.378;0.094;2023-11-19T05:06:44;11.90;83.10
26254;DHT22;53339;51.378;0.094;2023-11-19T05:09:13;11.90;83.10
26254;DHT22;53339;51.378;0.094;2023-11-19T05:11:41;11.90;82.90
26254;DHT22;53339;51.378;0.094;2023-11-19T05:14:12;11.90;82.90
26254;DHT22;53339;51.378;0.094;2023-11-19T05:16:40;11.80;83.10
26254;DHT22;53339;51.378;0.094;2023-11-19T05:19:08;11.80;83.50
26254;DHT22;53339;51.378;0.094;2023-11-19T05:21:42;11.80;83.20
26254;DHT22;53339;51.378;0.094;2023-11-19T05:24:11;11.80;83.10
26254;DHT22;53339;51.378;0.094;2023-11-19T05:26:39;11.90;82.10
26254;DHT22;53339;51.378;0.094;2023-11-19T05:29:08;11.90;82.30
26254;DHT22;53339;51.378;0.094;2023-11-19T05:31:35;11.90;82.40
26254;DHT22;53339;51.378;0.094;2023-11-19T05:34:04;11.90;82.40
26254;DHT22;53339;51.378;0.094;2023-11-19T05:36:32;11.90;82.40
26254;DHT22;53339;51.378;0.094;2023-11-19T05:39:00;11.90;82.60
26254;DHT22;53339;51.378;0.094;2023-11-19T05:41:31;11.80;82.70
26254;DHT22;53339;51.378;0.094;2023-11-19T05:43:59;11.80;82.40
26254;DHT22;53339;51.378;0.094;2023-11-19T05:46:27;11.80;82.20
26254;DHT22;53339;51.378;0.094;2023-11-19T05:48:55;11.90;82.40
26254;DHT22;53339;51.378;0.094;2023-11-19T05:51:23;11.90;82.40
26254;DHT22;53339;51.378;0.094;2023-11-19T05:53:55;12.00;82.10
26254;DHT22;53339;51.378;0.094;2023-11-19T05:56:24;12.10;81.90
26254;DHT22;53339;51.378;0.094;2023-11-19T05:58:53;12.10;81.60
26254;DHT22;53339;51.378;0.094;2023-11-19T06:01:21;12.20;81.30
26254;DHT22;53339;51.378;0.094;2023-11-19T06:03:49;12.20;81.30
26254;DHT22;53339;51.378;0.094;2023-11-19T06:06:18;12.20;81.40
26254;DHT22;53339;51.378;0.094;2023-11-19T06:08:46;12.20;81.20
26254;DHT22;53339;51.378;0.094;2023-11-19T06:11:14;12.20;81.30
26254;DHT22;53339;51.378;0.094;2023-11-19T06:13:46;12.20;81.20
26254;DHT22;53339;51.378;0.094;2023-11-19T06:16:15;12.20;81.00
26254;DHT22;53339;51.378;0.094;2023-11-19T06:18:45;12.20;80.80
26254;DHT22;53339;51.378;0.094;2023-11-19T06:21:13;12.20;80.50
26254;DHT22;53339;51.378;0.094;2023-11-19T06:23:41;12.20;80.60
26254;DHT22;53339;51.378;0.094;2023-11-19T06:26:09;12.20;80.60
26254;DHT22;53339;51.378;0.094;2023-11-19T06:28:37;12.20;80.60
26254;DHT22;53339;51.378;0.094;2023-11-19T06:31:05;12.20;80.60
26254;DHT22;53339;51.378;0.094;2023-11-19T06:33:33;12.20;80.10
26254;DHT22;53339;51.378;0.094;2023-11-19T06:36:01;12.20;80.10
26254;DHT22;53339;51.378;0.094;2023-11-19T06:38:29;12.20;80.10
26254;DHT22;53339;51.378;0.094;2023-11-19T06:40:57;12.20;80.00
26254;DHT22;53339;51.378;0.094;2023-11-19T06:43:25;12.20;79.70
26254;DHT22;53339;51.378;0.094;2023-11-19T06:45:54;12.20;79.80
26254;DHT22;53339;51.378;0.094;2023-11-19T06:48:22;12.20;80.10
26254;DHT22;53339;51.378;0.094;2023-11-19T06:50:49;12.10;80.00
26254;DHT22;53339;51.378;0.094;2023-11-19T06:53:18;12.10;80.00
26254;DHT22;53339;51.378;0.094;2023-11-19T06:55:46;12.10;80.30
26254;DHT22;53339;51.378;0.094;2023-11-19T06:58:14;12.10;80.20
26254;DHT22;53339;51.378;0.094;2023-11-19T07:00:42;12.10;80.10
26254;DHT22;53339;51.378;0.094;2023-11-19T07:03:13;12.00;80.50
26254;DHT22;53339;51.378;0.094;2023-11-19T07:05:41;12.00;80.50
26254;DHT22;53339;51.378;0.094;2023-11-19T07:08:09;11.90;80.70
26254;DHT22;53339;51.378;0.094;2023-11-19T07:10:37;11.90;80.50
26254;DHT22;53339;51.378;0.094;2023-11-19T07:13:06;12.00;80.10
26254;DHT22;53339;51.378;0.094;2023-11-19T07:15:33;12.00;80.00
26254;DHT22;53339;51.378;0.094;2023-11-19T07:18:01;12.00;79.80
26254;DHT22;53339;51.378;0.094;2023-11-19T07:20:30;12.10;79.60
26254;DHT22;53339;51.378;0.094;2023-11-19T07:22:58;12.00;79.40
26254;DHT22;53339;51.378;0.094;2023-11-19T07:25:26;12.00;79.90
26254;DHT22;53339;51.378;0.094;2023-11-19T07:27:54;12.00;79.10
26254;DHT22;53339;51.378;0.094;2023-11-19T07:30:22;12.00;79.00
26254;DHT22;53339;51.378;0.094;2023-11-19T07:32:49;12.10;79.10
26254;DHT22;53339;51.378;0.094;2023-11-19T07:35:17;12.10;78.80
26254;DHT22;53339;51.378;0.094;2023-11-19T07:37:46;12.10;78.60
26254;DHT22;53339;51.378;0.094;2023-11-19T07:40:15;12.10;78.30
26254;DHT22;53339;51.378;0.094;2023-11-19T07:42:43;12.00;78.40
26254;DHT22;53339;51.378;0.094;2023-11-19T07:45:10;12.10;78.10
26254;DHT22;53339;51.378;0.094;2023-11-19T07:47:38;12.10;78.20
26254;DHT22;53339;51.378;0.094;2023-11-19T07:50:06;12.00;78.20
26254;DHT22;53339;51.378;0.094;2023-11-19T07:52:34;12.00;78.60
26254;DHT22;53339;51.378;0.094;2023-11-19T07:55:02;12.00;78.30
26254;DHT22;53339;51.378;0.094;2023-11-19T07:57:29;12.00;78.30
26254;DHT22;53339;51.378;0.094;2023-11-19T07:59:58;12.00;78.30
26254;DHT22;53339;51.378;0.094;2023-11-19T08:02:26;12.00;78.20
26254;DHT22;53339;51.378;0.094;2023-11-19T08:04:54;12.00;78.00
26254;DHT22;53339;51.378;0.094;2023-11-19T08:07:22;12.10;78.40
26254;DHT22;53339;51.378;0.094;2023-11-19T08:09:50;12.10;78.40
26254;DHT22;53339;51.378;0.094;2023-11-19T08:12:18;12.00;79.00
26254;DHT22;53339;51.378;0.094;2023-11-19T08:14:45;12.00;79.30
26254;DHT22;53339;51.378;0.094;2023-11-19T08:17:13;12.00;79.20
26254;DHT22;53339;51.378;0.094;2023-11-19T08:19:41;12.00;79.20
26254;DHT22;53339;51.378;0.094;2023-11-19T08:22:08;12.00;79.40
26254;DHT22;53339;51.378;0.094;2023-11-19T08:24:36;12.00;79.60
26254;DHT22;53339;51.378;0.094;2023-11-19T08:27:04;12.00;79.50
26254;DHT22;53339;51.378;0.094;2023-11-19T08:29:32;12.00;79.90
26254;DHT22;53339;51.378;0.094;2023-11-19T08:32:01;12.00;80.20
26254;DHT22;53339;51.378;0.094;2023-11-19T08:34:30;12.00;80.40
26254;DHT22;53339;51.378;0.094;2023-11-19T08:36:59;12.00;80.30
26254;DHT22;53339;51.378;0.094;2023-11-19T08:39:27;12.00;80.40
26254;DHT22;53339;51.378;0.094;2023-11-19T08:41:55;12.00;80.50
26254;DHT22;53339;51.378;0.094;2023-11-19T08:44:23;12.00;80.80
26254;DHT22;53339;51.378;0.094;2023-11-19T08:46:54;12.10;80.90
26254;DHT22;53339;51.378;0.094;2023-11-19T08:49:22;12.10;80.80
26254;DHT22;53339;51.378;0.094;2023-11-19T08:51:50;12.20;80.70
26254;DHT22;53339;51.378;0.094;2023-11-19T08:54:18;12.20;80.60
26254;DHT22;53339;51.378;0.094;2023-11-19T08:56:48;12.20;80.60
26254;DHT22;53339;51.378;0.094;2023-11-19T08:59:16;12.30;80.70
26254;DHT22;53339;51.378;0.094;2023-11-19T09:01:45;12.20;80.20
26254;DHT22;53339;51.378;0.094;2023-11-19T09:04:15;12.40;80.00
26254;DHT22;53339;51.378;0.094;2023-11-19T09:06:43;12.40;80.10
26254;DHT22;53339;51.378;0.094;2023-11-19T09:09:11;12.50;80.10
26254;DHT22;53339;51.378;0.094;2023-11-19T09:11:39;12.50;80.20
26254;DHT22;53339;51.378;0.094;2023-11-19T09:14:07;12.50;80.20
26254;DHT22;53339;51.378;0.094;2023-11-19T09:16:34;12.50;79.90
26254;DHT22;53339;51.378;0.094;2023-11-19T09:19:02;12.60;79.70
26254;DHT22;53339;51.378;0.094;2023-11-19T09:21:33;12.60;79.60
26254;DHT22;53339;51.378;0.094;2023-11-19T09:24:04;12.70;79.20
26254;DHT22;53339;51.378;0.094;2023-11-19T09:26:32;12.70;78.90
26254;DHT22;53339;51.378;0.094;2023-11-19T09:29:00;12.80;78.90
26254;DHT22;53339;51.378;0.094;2023-11-19T09:31:28;12.90;78.80
26254;DHT22;53339;51.378;0.094;2023-11-19T09:33:56;12.90;79.30
26254;DHT22;53339;51.378;0.094;2023-11-19T09:36:23;12.90;79.60
26254;DHT22;53339;51.378;0.094;2023-11-19T09:38:51;13.00;79.30
26254;DHT22;53339;51.378;0.094;2023-11-19T09:41:19;12.90;79.20
26254;DHT22;53339;51.378;0.094;2023-11-19T09:43:50;13.00;78.80
26254;DHT22;53339;51.378;0.094;2023-11-19T09:46:20;13.10;78.30
26254;DHT22;53339;51.378;0.094;2023-11-19T09:48:48;13.10;78.70
26254;DHT22;53339;51.378;0.094;2023-11-19T09:51:20;13.10;78.70
26254;DHT22;53339;51.378;0.094;2023-11-19T09:53:49;13.10;78.20
26254;DHT22;53339;51.378;0.094;2023-11-19T09:56:17;13.20;78.00
26254;DHT22;53339;51.378;0.094;2023-11-19T09:58:46;13.20;77.90
26254;DHT22;53339;51.378;0.094;2023-11-19T10:01:14;13.20;77.30
26254;DHT22;53339;51.378;0.094;2023-11-19T10:03:47;13.10;77.30
26254;DHT22;53339;51.378;0.094;2023-11-19T10:06:15;13.10;77.40
26254;DHT22;53339;51.378;0.094;2023-11-19T10:08:44;13.00;77.20
26254;DHT22;53339;51.378;0.094;2023-11-19T10:11:12;13.00;76.80
26254;DHT22;53339;51.378;0.094;2023-11-19T10:13:41;13.00;76.50
26254;DHT22;53339;51.378;0.094;2023-11-19T10:16:12;13.10;76.60
26254;DHT22;53339;51.378;0.094;2023-11-19T10:18:48;13.20;76.90
26254;DHT22;53339;51.378;0.094;2023-11-19T10:21:18;13.20;76.80
26254;DHT22;53339;51.378;0.094;2023-11-19T10:24:05;13.20;76.30
26254;DHT22;53339;51.378;0.094;2023-11-19T10:26:36;13.30;76.40
26254;DHT22;53339;51.378;0.094;2023-11-19T10:29:04;13.30;76.50
26254;DHT22;53339;51.378;0.094;2023-11-19T10:31:35;13.40;75.50
26254;DHT22;53339;51.378;0.094;2023-11-19T10:34:03;13.50;75.10
26254;DHT22;53339;51.378;0.094;2023-11-19T10:36:39;13.60;75.00
26254;DHT22;53339;51.378;0.094;2023-11-19T10:39:10;13.60;74.90
26254;DHT22;53339;51.378;0.094;2023-11-19T10:41:38;13.60;74.30
26254;DHT22;53339;51.378;0.094;2023-11-19T10:44:06;13.70;74.50
26254;DHT22;53339;51.378;0.094;2023-11-19T10:46:41;13.70;73.70
26254;DHT22;53339;51.378;0.094;2023-11-19T10:49:09;13.70;74.00
26254;DHT22;53339;51.378;0.094;2023-11-19T10:51:44;13.70;74.30
26254;DHT22;53339;51.378;0.094;2023-11-19T10:54:15;13.70;74.90
26254;DHT22;53339;51.378;0.094;2023-11-19T10:56:55;13.70;75.10
26254;DHT22;53339;51.378;0.094;2023-11-19T10:59:29;13.70;74.50
26254;DHT22;53339;51.378;0.094;2023-11-19T11:02:03;13.80;74.20
26254;DHT22;53339;51.378;0.094;2023-11-19T11:04:39;13.80;74.50
26254;DHT22;53339;51.378;0.094;2023-11-19T11:07:10;13.90;75.10
26254;DHT22;53339;51.378;0.094;2023-11-19T11:09:39;13.90;75.30
26254;DHT22;53339;51.378;0.094;2023-11-19T11:12:09;14.00;74.50
26254;DHT22;53339;51.378;0.094;2023-11-19T11:14:38;14.10;73.90
26254;DHT22;53339;51.378;0.094;2023-11-19T11:17:09;14.20;73.80
26254;DHT22;53339;51.378;0.094;2023-11-19T11:19:39;14.30;73.30
26254;DHT22;53339;51.378;0.094;2023-11-19T11:22:11;14.30;73.20
26254;DHT22;53339;51.378;0.094;2023-11-19T11:38:09;14.20;72.90
26254;DHT22;53339;51.378;0.094;2023-11-19T11:40:37;14.20;73.30
26254;DHT22;53339;51.378;0.094;2023-11-19T11:43:04;14.20;73.20
26254;DHT22;53339;51.378;0.094;2023-11-19T11:45:55;14.20;73.40
26254;DHT22;53339;51.378;0.094;2023-11-19T11:48:25;14.20;73.90
26254;DHT22;53339;51.378;0.094;2023-11-19T11:50:57;14.20;73.60
26254;DHT22;53339;51.378;0.094;2023-11-19T11:53:25;14.20;73.40
26254;DHT22;53339;51.378;0.094;2023-11-19T11:55:54;14.30;73.90
26254;DHT22;53339;51.378;0.094;2023-11-19T11:58:29;14.20;74.00
26254;DHT22;53339;51.378;0.094;2023-11-19T12:01:02;14.20;73.60
26254;DHT22;53339;51.378;0.094;2023-11-19T12:03:30;14.20;73.70
26254;DHT22;53339;51.378;0.094;2023-11-19T12:05:58;14.20;73.40
26254;DHT22;53339;51.378;0.094;2023-11-19T12:08:28;14.20;73.20
26254;DHT22;53339;51.378;0.094;2023-11-19T12:10:57;14.20;74.10
26254;DHT22;53339;51.378;0.094;2023-11-19T12:13:46;14.20;74.10
26254;DHT22;53339;51.378;0.094;2023-11-19T12:16:14;14.20;73.60
26254;DHT22;53339;51.378;0.094;2023-11-19T12:18:45;14.20;74.30
26254;DHT22;53339;51.378;0.094;2023-11-19T12:21:30;14.20;74.90
26254;DHT22;53339;51.378;0.094;2023-11-19T12:23:59;14.20;74.80
26254;DHT22;53339;51.378;0.094;2023-11-19T12:26:39;14.30;74.60
26254;DHT22;53339;51.378;0.094;2023-11-19T12:29:08;14.30;74.10
26254;DHT22;53339;51.378;0.094;2023-11-19T12:31:36;14.30;74.40
26254;DHT22;53339;51.378;0.094;2023-11-19T12:34:08;14.30;74.00
26254;DHT22;53339;51.378;0.094;2023-11-19T12:36:40;14.30;73.80
26254;DHT22;53339;51.378;0.094;2023-11-19T12:39:09;14.40;74.00
26254;DHT22;53339;51.378;0.094;2023-11-19T12:41:51;14.40;73.90
26254;DHT22;53339;51.378;0.094;2023-11-19T12:44:19;14.50;74.50
26254;DHT22;53339;51.378;0.094;2023-11-19T12:47:02;14.50;74.70
26254;DHT22;53339;51.378;0.094;2023-11-19T12:49:31;14.50;75.20
26254;DHT22;53339;51.378;0.094;2023-11-19T12:51:59;14.50;75.10
26254;DHT22;53339;51.378;0.094;2023-11-19T12:54:37;14.50;75.10
26254;DHT22;53339;51.378;0.094;2023-11-19T12:57:12;14.40;75.30
26254;DHT22;53339;51.378;0.094;2023-11-19T12:59:40;14.40;74.70
26254;DHT22;53339;51.378;0.094;2023-11-19T13:02:08;14.50;75.40
26254;DHT22;53339;51.378;0.094;2023-11-19T13:04:36;14.50;75.50
26254;DHT22;53339;51.378;0.094;2023-11-19T13:07:04;14.50;74.80
26254;DHT22;53339;51.378;0.094;2023-11-19T13:09:33;14.50;74.80
26254;DHT22;53339;51.378;0.094;2023-11-19T13:12:12;14.50;75.00
26254;DHT22;53339;51.378;0.094;2023-11-19T13:14:44;14.40;75.00
26254;DHT22;53339;51.378;0.094;2023-11-19T13:17:14;14.40;74.70
26254;DHT22;53339;51.378;0.094;2023-11-19T13:19:42;14.40;74.80
26254;DHT22;53339;51.378;0.094;2023-11-19T13:22:10;14.40;75.10
26254;DHT22;53339;51.378;0.094;2023-11-19T13:24:38;14.40;75.10
26254;DHT22;53339;51.378;0.094;2023-11-19T13:27:08;14.40;75.00
26254;DHT22;53339;51.378;0.094;2023-11-19T13:29:36;14.40;74.40
26254;DHT22;53339;51.378;0.094;2023-11-19T13:32:04;14.40;75.00
26254;DHT22;53339;51.378;0.094;2023-11-19T13:34:33;14.40;74.70
26254;DHT22;53339;51.378;0.094;2023-11-19T13:37:01;14.40;75.30
26254;DHT22;53339;51.378;0.094;2023-11-19T13:39:29;14.40;75.00
26254;DHT22;53339;51.378;0.094;2023-11-19T13:41:57;14.40;75.10
26254;DHT22;53339;51.378;0.094;2023-11-19T13:44:28;14.40;74.80
26254;DHT22;53339;51.378;0.094;2023-11-19T13:46:56;14.40;74.40
26254;DHT22;53339;51.378;0.094;2023-11-19T13:49:23;14.40;74.90
26254;DHT22;53339;51.378;0.094;2023-11-19T13:51:51;14.40;75.10
26254;DHT22;53339;51.378;0.094;2023-11-19T13:54:24;14.40;75.00
26254;DHT22;53339;51.378;0.094;2023-11-19T13:56:55;14.40;74.90
26254;DHT22;53339;51.378;0.094;2023-11-19T13:59:25;14.40;75.40
26254;DHT22;53339;51.378;0.094;2023-11-19T14:01:53;14.40;75.60
26254;DHT22;53339;51.378;0.094;2023-11-19T14:04:21;14.40;75.00
26254;DHT22;53339;51.378;0.094;2023-11-19T14:06:49;14.40;75.20
26254;DHT22;53339;51.378;0.094;2023-11-19T14:09:17;14.30;75.40
26254;DHT22;53339;51.378;0.094;2023-11-19T14:11:45;14.20;76.10
26254;DHT22;53339;51.378;0.094;2023-11-19T14:14:13;14.20;75.90
26254;DHT22;53339;51.378;0.094;2023-11-19T14:16:41;14.20;76.50
26254;DHT22;53339;51.378;0.094;2023-11-19T14:19:09;14.20;76.40
26254;DHT22;53339;51.378;0.094;2023-11-19T14:21:37;14.20;76.60
26254;DHT22;53339;51.378;0.094;2023-11-19T14:24:07;14.20;76.60
26254;DHT22;53339;51.378;0.094;2023-11-19T14:26:35;14.20;76.50
26254;DHT22;53339;51.378;0.094;2023-11-19T14:29:03;14.20;76.70
26254;DHT22;53339;51.378;0.094;2023-11-19T14:31:31;14.20;77.20
26254;DHT22;53339;51.378;0.094;2023-11-19T14:34:04;14.20;76.80
26254;DHT22;53339;51.378;0.094;2023-11-19T14:36:35;14.20;76.60
26254;DHT22;53339;51.378;0.094;2023-11-19T14:39:09;14.20;76.70
26254;DHT22;53339;51.378;0.094;2023-11-19T14:41:38;14.20;76.60
26254;DHT22;53339;51.378;0.094;2023-11-19T14:44:06;14.20;76.80
26254;DHT22;53339;51.378;0.094;2023-11-19T14:46:37;14.20;76.60
26254;DHT22;53339;51.378;0.094;2023-11-19T14:49:08;14.10;76.60
26254;DHT22;53339;51.378;0.094;2023-11-19T14:51:37;14.20;76.80
26254;DHT22;53339;51.378;0.094;2023-11-19T14:54:05;14.20;76.90
26254;DHT22;53339;51.378;0.094;2023-11-19T14:56:33;14.10;76.90
26254;DHT22;53339;51.378;0.094;2023-11-19T14:59:01;14.10;77.10
26254;DHT22;53339;51.378;0.094;2023-11-19T15:01:29;14.10;77.50
26254;DHT22;53339;51.378;0.094;2023-11-19T15:04:01;14.10;77.10
26254;DHT22;53339;51.378;0.094;2023-11-19T15:06:34;14.10;77.20
26254;DHT22;53339;51.378;0.094;2023-11-19T15:09:03;14.00;77.20
26254;DHT22;53339;51.378;0.094;2023-11-19T15:11:31;14.00;77.30
26254;DHT22;53339;51.378;0.094;2023-11-19T15:14:00;14.00;77.60
26254;DHT22;53339;51.378;0.094;2023-11-19T15:16:28;13.90;77.80
26254;DHT22;53339;51.378;0.094;2023-11-19T15:19:00;13.90;78.10
26254;DHT22;53339;51.378;0.094;2023-11-19T15:21:31;13.80;78.20
26254;DHT22;53339;51.378;0.094;2023-11-19T15:24:01;13.70;78.70
26254;DHT22;53339;51.378;0.094;2023-11-19T15:26:32;13.60;79.10
26254;DHT22;53339;51.378;0.094;2023-11-19T15:28:59;13.50;79.50
26254;DHT22;53339;51.378;0.094;2023-11-19T15:31:27;13.50;79.60
26254;DHT22;53339;51.378;0.094;2023-11-19T15:33:56;13.50;79.60
26254;DHT22;53339;51.378;0.094;2023-11-19T15:36:24;13.50;79.70
26254;DHT22;53339;51.378;0.094;2023-11-19T15:38:52;13.50;79.80
26254;DHT22;53339;51.378;0.094;2023-11-19T15:41:20;13.30;80.00
26254;DHT22;53339;51.378;0.094;2023-11-19T15:43:51;13.20;80.50
26254;DHT22;53339;51.378;0.094;2023-11-19T15:46:19;13.10;81.10
26254;DHT22;53339;51.378;0.094;2023-11-19T15:48:48;13.10;81.20
26254;DHT22;53339;51.378;0.094;2023-11-19T15:51:15;13.10;81.30
26254;DHT22;53339;51.378;0.094;2023-11-19T15:53:45;13.10;81.50
26254;DHT22;53339;51.378;0.094;2023-11-19T15:56:14;13.00;81.90